sensor_id;sensor_type;location;lat;lon;timestamp;P1;durP1;ratioP1;P2;durP2;ratioP2
9465;SDS011;4771;48.726;9.006;2022-10-30T00:00:27;8.68;;;4.03;;
9465;SDS011;4771;48.726;9.006;2022-10-30T00:02:56;12.57;;;3.80;;
9465;SDS011;4771;48.726;9.006;2022-10-30T00:05:23;10.50;;;3.38;;
9465;SDS011;4771;48.726;9.006;2022-10-30T00:07:49;12.80;;;3.83;;
9465;SDS011;4771;48.726;9.006;2022-10-30T00:10:17;15.70;;;3.72;;
9465;SDS011;4771;48.726;9.006;2022-10-30T00:12:44;14.10;;;4.20;;
9465;SDS011;4771;48.726;9.006;2022-10-30T00:15:11;12.18;;;4.05;;
9465;SDS011;4771;48.726;9.006;2022-10-30T00:17:38;11.55;;;3.53;;
9465;SDS011;4771;48.726;9.006;2022-10-30T00:20:07;12.73;;;4.63;;
9465;SDS011;4771;48.726;9.006;2022-10-30T00:22:34;10.95;;;3.83;;
9465;SDS011;4771;48.726;9.006;2022-10-30T00:25:01;13.85;;;3.85;;
9465;SDS011;4771;48.726;9.006;2022-10-30T00:27:28;13.13;;;3.88;;
9465;SDS011;4771;48.726;9.006;2022-10-30T00:29:55;8.40;;;3.33;;
9465;SDS011;4771;48.726;9.006;2022-10-30T00:32:22;13.68;;;3.85;;
9465;SDS011;4771;48.726;9.006;2022-10-30T00:34:49;9.73;;;3.65;;
9465;SDS011;4771;48.726;9.006;2022-10-30T00:37:18;8.25;;;3.72;;
9465;SDS011;4771;48.726;9.006;2022-10-30T00:39:45;12.90;;;3.80;;
9465;SDS011;4771;48.726;9.006;2022-10-30T00:42:12;14.38;;;3.78;;
9465;SDS011;4771;48.726;9.006;2022-10-30T00:44:41;14.40;;;4.45;;
9465;SDS011;4771;48.726;9.006;2022-10-30T00:47:14;12.57;;;3.50;;
9465;SDS011;4771;48.726;9.006;2022-10-30T00:49:52;8.80;;;3.42;;
9465;SDS011;4771;48.726;9.006;2022-10-30T00:52:26;11.32;;;3.22;;
9465;SDS011;4771;48.726;9.006;2022-10-30T00:54:56;8.93;;;3.38;;
9465;SDS011;4771;48.726;9.006;2022-10-30T00:57:26;14.95;;;3.83;;
9465;SDS011;4771;48.726;9.006;2022-10-30T00:59:53;12.57;;;3.85;;
9465;SDS011;4771;48.726;9.006;2022-10-30T01:02:20;8.48;;;3.67;;
9465;SDS011;4771;48.726;9.006;2022-10-30T01:04:48;18.02;;;4.15;;
9465;SDS011;4771;48.726;9.006;2022-10-30T01:07:18;12.63;;;3.47;;
9465;SDS011;4771;48.726;9.006;2022-10-30T01:09:46;14.23;;;3.33;;
9465;SDS011;4771;48.726;9.006;2022-10-30T01:12:13;12.13;;;3.97;;
9465;SDS011;4771;48.726;9.006;2022-10-30T01:14:41;7.50;;;3.42;;
9465;SDS011;4771;48.726;9.006;2022-10-30T01:17:32;13.55;;;3.65;;
9465;SDS011;4771;48.726;9.006;2022-10-30T01:20:17;11.60;;;3.35;;
9465;SDS011;4771;48.726;9.006;2022-10-30T01:23:00;11.63;;;4.15;;
9465;SDS011;4771;48.726;9.006;2022-10-30T01:25:41;10.45;;;3.55;;
9465;SDS011;4771;48.726;9.006;2022-10-30T01:28:21;11.48;;;3.65;;
9465;SDS011;4771;48.726;9.006;2022-10-30T01:31:02;10.60;;;3.33;;
9465;SDS011;4771;48.726;9.006;2022-10-30T01:33:39;7.22;;;3.00;;
9465;SDS011;4771;48.726;9.006;2022-10-30T01:36:20;13.13;;;3.97;;
9465;SDS011;4771;48.726;9.006;2022-10-30T01:38:51;12.27;;;3.15;;
9465;SDS011;4771;48.726;9.006;2022-10-30T01:41:23;13.35;;;3.70;;
9465;SDS011;4771;48.726;9.006;2022-10-30T01:43:52;9.88;;;3.88;;
9465;SDS011;4771;48.726;9.006;2022-10-30T01:46:32;8.10;;;3.35;;
9465;SDS011;4771;48.726;9.006;2022-10-30T01:49:10;8.90;;;3.60;;
9465;SDS011;4771;48.726;9.006;2022-10-30T01:51:53;11.02;;;3.60;;
9465;SDS011;4771;48.726;9.006;2022-10-30T01:54:31;13.60;;;3.42;;
9465;SDS011;4771;48.726;9.006;2022-10-30T01:57:06;14.45;;;3.60;;
9465;SDS011;4771;48.726;9.006;2022-10-30T01:59:38;14.77;;;3.80;;
9465;SDS011;4771;48.726;9.006;2022-10-30T02:02:08;8.77;;;3.42;;
9465;SDS011;4771;48.726;9.006;2022-10-30T02:04:36;12.73;;;3.70;;
9465;SDS011;4771;48.726;9.006;2022-10-30T02:07:03;10.95;;;4.10;;
9465;SDS011;4771;48.726;9.006;2022-10-30T02:09:31;12.70;;;4.07;;
9465;SDS011;4771;48.726;9.006;2022-10-30T02:11:58;11.07;;;3.83;;
9465;SDS011;4771;48.726;9.006;2022-10-30T02:14:27;11.10;;;3.72;;
9465;SDS011;4771;48.726;9.006;2022-10-30T02:16:59;10.27;;;3.75;;
9465;SDS011;4771;48.726;9.006;2022-10-30T02:19:28;13.10;;;3.95;;
9465;SDS011;4771;48.726;9.006;2022-10-30T02:21:56;10.95;;;3.42;;
9465;SDS011;4771;48.726;9.006;2022-10-30T02:24:23;9.00;;;3.58;;
9465;SDS011;4771;48.726;9.006;2022-10-30T02:26:50;10.55;;;3.30;;
9465;SDS011;4771;48.726;9.006;2022-10-30T02:29:17;10.48;;;3.65;;
9465;SDS011;4771;48.726;9.006;2022-10-30T02:31:46;15.65;;;4.22;;
9465;SDS011;4771;48.726;9.006;2022-10-30T02:34:13;10.23;;;4.05;;
9465;SDS011;4771;48.726;9.006;2022-10-30T02:36:41;8.43;;;3.30;;
9465;SDS011;4771;48.726;9.006;2022-10-30T02:39:09;9.35;;;3.63;;
9465;SDS011;4771;48.726;9.006;2022-10-30T02:41:36;8.38;;;3.38;;
9465;SDS011;4771;48.726;9.006;2022-10-30T02:44:04;11.73;;;3.53;;
9465;SDS011;4771;48.726;9.006;2022-10-30T02:46:31;11.85;;;3.88;;
9465;SDS011;4771;48.726;9.006;2022-10-30T02:48:58;8.20;;;3.42;;
9465;SDS011;4771;48.726;9.006;2022-10-30T02:51:26;7.78;;;3.38;;
9465;SDS011;4771;48.726;9.006;2022-10-30T02:53:56;11.32;;;4.20;;
9465;SDS011;4771;48.726;9.006;2022-10-30T02:56:24;8.93;;;3.83;;
9465;SDS011;4771;48.726;9.006;2022-10-30T02:58:51;9.18;;;3.85;;
9465;SDS011;4771;48.726;9.006;2022-10-30T03:01:19;13.68;;;4.50;;
9465;SDS011;4771;48.726;9.006;2022-10-30T03:03:46;11.32;;;3.97;;
9465;SDS011;4771;48.726;9.006;2022-10-30T03:06:14;13.80;;;3.95;;
9465;SDS011;4771;48.726;9.006;2022-10-30T03:08:42;9.38;;;3.58;;
9465;SDS011;4771;48.726;9.006;2022-10-30T03:11:10;11.20;;;4.47;;
9465;SDS011;4771;48.726;9.006;2022-10-30T03:13:40;9.65;;;3.78;;
9465;SDS011;4771;48.726;9.006;2022-10-30T03:16:09;10.63;;;3.70;;
9465;SDS011;4771;48.726;9.006;2022-10-30T03:18:37;12.02;;;4.82;;
9465;SDS011;4771;48.726;9.006;2022-10-30T03:21:05;11.95;;;4.40;;
9465;SDS011;4771;48.726;9.006;2022-10-30T03:23:33;9.00;;;3.97;;
9465;SDS011;4771;48.726;9.006;2022-10-30T03:26:00;14.60;;;3.80;;
9465;SDS011;4771;48.726;9.006;2022-10-30T03:28:29;10.35;;;3.65;;
9465;SDS011;4771;48.726;9.006;2022-10-30T03:30:58;10.05;;;4.25;;
9465;SDS011;4771;48.726;9.006;2022-10-30T03:33:26;9.18;;;3.30;;
9465;SDS011;4771;48.726;9.006;2022-10-30T03:35:53;9.75;;;3.80;;
9465;SDS011;4771;48.726;9.006;2022-10-30T03:38:21;16.45;;;4.53;;
9465;SDS011;4771;48.726;9.006;2022-10-30T03:40:48;14.40;;;3.85;;
9465;SDS011;4771;48.726;9.006;2022-10-30T03:43:15;10.63;;;3.63;;
9465;SDS011;4771;48.726;9.006;2022-10-30T03:45:44;10.60;;;3.65;;
9465;SDS011;4771;48.726;9.006;2022-10-30T03:48:14;9.80;;;3.50;;
9465;SDS011;4771;48.726;9.006;2022-10-30T03:50:42;11.40;;;3.97;;
9465;SDS011;4771;48.726;9.006;2022-10-30T03:53:09;10.75;;;3.60;;
9465;SDS011;4771;48.726;9.006;2022-10-30T03:55:37;11.55;;;3.78;;
9465;SDS011;4771;48.726;9.006;2022-10-30T03:58:04;16.45;;;4.50;;
9465;SDS011;4771;48.726;9.006;2022-10-30T04:00:32;10.43;;;3.85;;
9465;SDS011;4771;48.726;9.006;2022-10-30T04:03:00;12.65;;;3.70;;
9465;SDS011;4771;48.726;9.006;2022-10-30T04:05:29;8.20;;;3.72;;
9465;SDS011;4771;48.726;9.006;2022-10-30T04:07:57;7.85;;;4.00;;
9465;SDS011;4771;48.726;9.006;2022-10-30T04:10:25;12.68;;;4.22;;
9465;SDS011;4771;48.726;9.006;2022-10-30T04:12:56;11.27;;;3.38;;
9465;SDS011;4771;48.726;9.006;2022-10-30T04:15:25;10.40;;;3.70;;
9465;SDS011;4771;48.726;9.006;2022-10-30T04:17:52;13.98;;;3.75;;
9465;SDS011;4771;48.726;9.006;2022-10-30T04:20:19;12.40;;;4.32;;
9465;SDS011;4771;48.726;9.006;2022-10-30T04:22:50;14.80;;;3.47;;
9465;SDS011;4771;48.726;9.006;2022-10-30T04:25:24;8.05;;;3.47;;
9465;SDS011;4771;48.726;9.006;2022-10-30T04:27:53;10.38;;;3.75;;
9465;SDS011;4771;48.726;9.006;2022-10-30T04:30:20;13.85;;;4.63;;
9465;SDS011;4771;48.726;9.006;2022-10-30T04:32:49;15.25;;;4.13;;
9465;SDS011;4771;48.726;9.006;2022-10-30T04:35:18;12.05;;;4.00;;
9465;SDS011;4771;48.726;9.006;2022-10-30T04:37:52;12.00;;;3.90;;
9465;SDS011;4771;48.726;9.006;2022-10-30T04:40:19;9.68;;;4.05;;
9465;SDS011;4771;48.726;9.006;2022-10-30T04:42:46;11.40;;;3.75;;
9465;SDS011;4771;48.726;9.006;2022-10-30T04:45:14;10.20;;;3.67;;
9465;SDS011;4771;48.726;9.006;2022-10-30T04:47:41;11.27;;;3.80;;
9465;SDS011;4771;48.726;9.006;2022-10-30T04:50:08;11.93;;;3.92;;
9465;SDS011;4771;48.726;9.006;2022-10-30T04:52:36;15.90;;;4.63;;
9465;SDS011;4771;48.726;9.006;2022-10-30T04:55:04;10.90;;;3.67;;
9465;SDS011;4771;48.726;9.006;2022-10-30T04:57:33;10.07;;;3.92;;
9465;SDS011;4771;48.726;9.006;2022-10-30T05:00:01;15.90;;;4.65;;
9465;SDS011;4771;48.726;9.006;2022-10-30T05:02:29;10.20;;;4.10;;
9465;SDS011;4771;48.726;9.006;2022-10-30T05:04:56;9.77;;;3.50;;
9465;SDS011;4771;48.726;9.006;2022-10-30T05:07:23;8.10;;;3.85;;
9465;SDS011;4771;48.726;9.006;2022-10-30T05:09:49;9.18;;;4.40;;
9465;SDS011;4771;48.726;9.006;2022-10-30T05:12:18;9.40;;;3.60;;
9465;SDS011;4771;48.726;9.006;2022-10-30T05:14:46;10.40;;;3.60;;
9465;SDS011;4771;48.726;9.006;2022-10-30T05:17:13;7.28;;;3.25;;
9465;SDS011;4771;48.726;9.006;2022-10-30T05:19:40;9.63;;;3.95;;
9465;SDS011;4771;48.726;9.006;2022-10-30T05:22:07;12.98;;;3.70;;
9465;SDS011;4771;48.726;9.006;2022-10-30T05:24:34;14.00;;;4.00;;
9465;SDS011;4771;48.726;9.006;2022-10-30T05:27:01;11.32;;;4.07;;
9465;SDS011;4771;48.726;9.006;2022-10-30T05:29:29;11.98;;;3.90;;
9465;SDS011;4771;48.726;9.006;2022-10-30T05:31:56;13.55;;;4.28;;
9465;SDS011;4771;48.726;9.006;2022-10-30T05:34:23;12.48;;;3.80;;
9465;SDS011;4771;48.726;9.006;2022-10-30T05:36:50;10.98;;;3.67;;
9465;SDS011;4771;48.726;9.006;2022-10-30T05:39:17;12.48;;;3.85;;
9465;SDS011;4771;48.726;9.006;2022-10-30T05:41:44;9.05;;;3.55;;
9465;SDS011;4771;48.726;9.006;2022-10-30T05:44:11;13.18;;;4.43;;
9465;SDS011;4771;48.726;9.006;2022-10-30T05:46:39;10.85;;;4.10;;
9465;SDS011;4771;48.726;9.006;2022-10-30T05:49:06;12.20;;;4.18;;
9465;SDS011;4771;48.726;9.006;2022-10-30T05:51:33;12.65;;;3.95;;
9465;SDS011;4771;48.726;9.006;2022-10-30T05:54:00;11.75;;;3.80;;
9465;SDS011;4771;48.726;9.006;2022-10-30T05:56:27;11.82;;;3.53;;
9465;SDS011;4771;48.726;9.006;2022-10-30T05:58:54;11.70;;;4.10;;
9465;SDS011;4771;48.726;9.006;2022-10-30T06:01:21;14.32;;;4.25;;
9465;SDS011;4771;48.726;9.006;2022-10-30T06:03:49;9.02;;;3.33;;
9465;SDS011;4771;48.726;9.006;2022-10-30T06:06:16;17.35;;;3.90;;
9465;SDS011;4771;48.726;9.006;2022-10-30T06:08:43;10.13;;;4.30;;
9465;SDS011;4771;48.726;9.006;2022-10-30T06:11:10;8.40;;;3.78;;
9465;SDS011;4771;48.726;9.006;2022-10-30T06:13:37;10.82;;;4.10;;
9465;SDS011;4771;48.726;9.006;2022-10-30T06:16:05;12.82;;;4.22;;
9465;SDS011;4771;48.726;9.006;2022-10-30T06:18:32;10.45;;;4.20;;
9465;SDS011;4771;48.726;9.006;2022-10-30T06:21:00;11.05;;;4.35;;
9465;SDS011;4771;48.726;9.006;2022-10-30T06:23:27;14.60;;;4.18;;
9465;SDS011;4771;48.726;9.006;2022-10-30T06:25:54;13.43;;;4.28;;
9465;SDS011;4771;48.726;9.006;2022-10-30T06:28:21;7.38;;;3.88;;
9465;SDS011;4771;48.726;9.006;2022-10-30T06:30:52;13.07;;;3.63;;
9465;SDS011;4771;48.726;9.006;2022-10-30T06:33:19;7.75;;;3.70;;
9465;SDS011;4771;48.726;9.006;2022-10-30T06:35:46;7.63;;;3.75;;
9465;SDS011;4771;48.726;9.006;2022-10-30T06:38:15;16.27;;;4.57;;
9465;SDS011;4771;48.726;9.006;2022-10-30T06:40:42;9.82;;;4.07;;
9465;SDS011;4771;48.726;9.006;2022-10-30T06:43:09;13.07;;;4.00;;
9465;SDS011;4771;48.726;9.006;2022-10-30T06:45:36;8.07;;;3.70;;
9465;SDS011;4771;48.726;9.006;2022-10-30T06:48:03;8.55;;;3.58;;
9465;SDS011;4771;48.726;9.006;2022-10-30T06:50:30;9.60;;;4.05;;
9465;SDS011;4771;48.726;9.006;2022-10-30T06:52:57;8.95;;;3.70;;
9465;SDS011;4771;48.726;9.006;2022-10-30T06:55:25;10.77;;;3.78;;
9465;SDS011;4771;48.726;9.006;2022-10-30T06:57:53;12.27;;;4.10;;
9465;SDS011;4771;48.726;9.006;2022-10-30T07:00:20;12.90;;;4.13;;
9465;SDS011;4771;48.726;9.006;2022-10-30T07:02:53;10.70;;;4.07;;
9465;SDS011;4771;48.726;9.006;2022-10-30T07:05:21;14.82;;;4.22;;
9465;SDS011;4771;48.726;9.006;2022-10-30T07:07:48;14.45;;;4.18;;
9465;SDS011;4771;48.726;9.006;2022-10-30T07:10:15;10.93;;;3.75;;
9465;SDS011;4771;48.726;9.006;2022-10-30T07:12:50;8.20;;;3.28;;
9465;SDS011;4771;48.726;9.006;2022-10-30T07:15:18;15.30;;;4.90;;
9465;SDS011;4771;48.726;9.006;2022-10-30T07:17:50;10.52;;;4.03;;
9465;SDS011;4771;48.726;9.006;2022-10-30T07:20:19;11.25;;;4.05;;
9465;SDS011;4771;48.726;9.006;2022-10-30T07:22:46;12.30;;;3.90;;
9465;SDS011;4771;48.726;9.006;2022-10-30T07:25:13;9.98;;;3.75;;
9465;SDS011;4771;48.726;9.006;2022-10-30T07:27:41;12.10;;;3.47;;
9465;SDS011;4771;48.726;9.006;2022-10-30T07:30:10;10.15;;;3.70;;
9465;SDS011;4771;48.726;9.006;2022-10-30T07:32:38;9.98;;;3.90;;
9465;SDS011;4771;48.726;9.006;2022-10-30T07:35:05;14.90;;;3.78;;
9465;SDS011;4771;48.726;9.006;2022-10-30T07:37:33;13.05;;;3.90;;
9465;SDS011;4771;48.726;9.006;2022-10-30T07:40:00;17.45;;;4.13;;
9465;SDS011;4771;48.726;9.006;2022-10-30T07:42:27;11.30;;;3.50;;
9465;SDS011;4771;48.726;9.006;2022-10-30T07:44:54;11.63;;;3.70;;
9465;SDS011;4771;48.726;9.006;2022-10-30T07:47:22;10.57;;;3.40;;
9465;SDS011;4771;48.726;9.006;2022-10-30T07:49:49;8.45;;;4.30;;
9465;SDS011;4771;48.726;9.006;2022-10-30T07:52:16;14.27;;;4.55;;
9465;SDS011;4771;48.726;9.006;2022-10-30T07:54:43;14.52;;;4.15;;
9465;SDS011;4771;48.726;9.006;2022-10-30T07:57:10;9.88;;;3.60;;
9465;SDS011;4771;48.726;9.006;2022-10-30T07:59:37;8.95;;;3.88;;
9465;SDS011;4771;48.726;9.006;2022-10-30T08:02:04;15.88;;;3.65;;
9465;SDS011;4771;48.726;9.006;2022-10-30T08:04:33;10.05;;;3.38;;
9465;SDS011;4771;48.726;9.006;2022-10-30T08:06:59;16.40;;;3.88;;
9465;SDS011;4771;48.726;9.006;2022-10-30T08:09:26;12.82;;;3.53;;
9465;SDS011;4771;48.726;9.006;2022-10-30T08:11:53;11.55;;;3.75;;
9465;SDS011;4771;48.726;9.006;2022-10-30T08:14:20;14.57;;;3.88;;
9465;SDS011;4771;48.726;9.006;2022-10-30T08:16:47;11.70;;;3.50;;
9465;SDS011;4771;48.726;9.006;2022-10-30T08:19:16;9.88;;;3.45;;
9465;SDS011;4771;48.726;9.006;2022-10-30T08:21:44;10.50;;;3.58;;
9465;SDS011;4771;48.726;9.006;2022-10-30T08:24:11;8.48;;;3.40;;
9465;SDS011;4771;48.726;9.006;2022-10-30T08:26:38;8.68;;;2.97;;
9465;SDS011;4771;48.726;9.006;2022-10-30T08:29:05;11.15;;;3.58;;
9465;SDS011;4771;48.726;9.006;2022-10-30T08:31:32;7.88;;;3.33;;
9465;SDS011;4771;48.726;9.006;2022-10-30T08:33:59;9.20;;;3.25;;
9465;SDS011;4771;48.726;9.006;2022-10-30T08:36:26;13.25;;;3.05;;
9465;SDS011;4771;48.726;9.006;2022-10-30T08:38:54;6.65;;;2.90;;
9465;SDS011;4771;48.726;9.006;2022-10-30T08:41:22;8.73;;;3.40;;
9465;SDS011;4771;48.726;9.006;2022-10-30T08:43:49;8.73;;;3.17;;
9465;SDS011;4771;48.726;9.006;2022-10-30T08:46:16;9.82;;;3.50;;
9465;SDS011;4771;48.726;9.006;2022-10-30T08:48:43;9.43;;;3.30;;
9465;SDS011;4771;48.726;9.006;2022-10-30T08:51:10;8.48;;;3.33;;
9465;SDS011;4771;48.726;9.006;2022-10-30T08:53:37;7.00;;;3.03;;
9465;SDS011;4771;48.726;9.006;2022-10-30T08:56:06;13.10;;;3.50;;
9465;SDS011;4771;48.726;9.006;2022-10-30T08:58:33;9.27;;;2.97;;
9465;SDS011;4771;48.726;9.006;2022-10-30T09:01:00;8.52;;;3.45;;
9465;SDS011;4771;48.726;9.006;2022-10-30T09:03:27;11.23;;;3.15;;
9465;SDS011;4771;48.726;9.006;2022-10-30T09:05:56;10.57;;;3.30;;
9465;SDS011;4771;48.726;9.006;2022-10-30T09:08:24;10.63;;;3.17;;
9465;SDS011;4771;48.726;9.006;2022-10-30T09:10:52;11.80;;;2.72;;
9465;SDS011;4771;48.726;9.006;2022-10-30T09:13:22;10.48;;;2.92;;
9465;SDS011;4771;48.726;9.006;2022-10-30T09:15:49;9.40;;;2.97;;
9465;SDS011;4771;48.726;9.006;2022-10-30T09:18:17;8.02;;;2.78;;
9465;SDS011;4771;48.726;9.006;2022-10-30T09:20:46;9.38;;;2.70;;
9465;SDS011;4771;48.726;9.006;2022-10-30T09:23:14;8.00;;;2.80;;
9465;SDS011;4771;48.726;9.006;2022-10-30T09:25:41;9.95;;;2.85;;
9465;SDS011;4771;48.726;9.006;2022-10-30T09:28:07;6.07;;;2.60;;
9465;SDS011;4771;48.726;9.006;2022-10-30T09:30:36;8.63;;;2.95;;
9465;SDS011;4771;48.726;9.006;2022-10-30T09:33:03;9.18;;;2.80;;
9465;SDS011;4771;48.726;9.006;2022-10-30T09:35:30;11.02;;;2.92;;
9465;SDS011;4771;48.726;9.006;2022-10-30T09:37:57;10.38;;;2.80;;
9465;SDS011;4771;48.726;9.006;2022-10-30T09:40:27;11.88;;;2.90;;
9465;SDS011;4771;48.726;9.006;2022-10-30T09:43:07;5.15;;;2.42;;
9465;SDS011;4771;48.726;9.006;2022-10-30T09:45:51;8.38;;;2.92;;
9465;SDS011;4771;48.726;9.006;2022-10-30T09:48:38;12.60;;;2.97;;
9465;SDS011;4771;48.726;9.006;2022-10-30T09:51:26;7.70;;;2.67;;
9465;SDS011;4771;48.726;9.006;2022-10-30T09:54:12;9.85;;;2.60;;
9465;SDS011;4771;48.726;9.006;2022-10-30T09:56:46;7.30;;;2.90;;
9465;SDS011;4771;48.726;9.006;2022-10-30T09:59:20;7.75;;;2.65;;
9465;SDS011;4771;48.726;9.006;2022-10-30T10:02:00;8.63;;;2.58;;
9465;SDS011;4771;48.726;9.006;2022-10-30T10:04:34;7.57;;;2.50;;
9465;SDS011;4771;48.726;9.006;2022-10-30T10:07:12;7.13;;;2.33;;
9465;SDS011;4771;48.726;9.006;2022-10-30T10:09:44;7.85;;;2.45;;
9465;SDS011;4771;48.726;9.006;2022-10-30T10:12:17;7.70;;;2.67;;
9465;SDS011;4771;48.726;9.006;2022-10-30T10:14:51;6.20;;;2.38;;
9465;SDS011;4771;48.726;9.006;2022-10-30T10:17:24;7.63;;;2.33;;
9465;SDS011;4771;48.726;9.006;2022-10-30T10:19:57;7.78;;;2.70;;
9465;SDS011;4771;48.726;9.006;2022-10-30T10:22:25;7.72;;;2.92;;
9465;SDS011;4771;48.726;9.006;2022-10-30T10:24:59;9.52;;;3.08;;
9465;SDS011;4771;48.726;9.006;2022-10-30T10:27:36;12.05;;;4.55;;
9465;SDS011;4771;48.726;9.006;2022-10-30T10:30:14;7.75;;;3.05;;
9465;SDS011;4771;48.726;9.006;2022-10-30T10:32:56;7.53;;;2.88;;
9465;SDS011;4771;48.726;9.006;2022-10-30T10:35:44;9.73;;;2.70;;
9465;SDS011;4771;48.726;9.006;2022-10-30T10:38:31;8.02;;;2.85;;
9465;SDS011;4771;48.726;9.006;2022-10-30T10:41:09;6.07;;;2.30;;
9465;SDS011;4771;48.726;9.006;2022-10-30T10:43:48;4.22;;;2.40;;
9465;SDS011;4771;48.726;9.006;2022-10-30T10:46:30;6.93;;;2.55;;
9465;SDS011;4771;48.726;9.006;2022-10-30T10:49:16;8.63;;;2.67;;
9465;SDS011;4771;48.726;9.006;2022-10-30T10:51:52;6.20;;;2.17;;
9465;SDS011;4771;48.726;9.006;2022-10-30T10:54:22;6.65;;;2.40;;
9465;SDS011;4771;48.726;9.006;2022-10-30T10:56:52;11.00;;;2.40;;
9465;SDS011;4771;48.726;9.006;2022-10-30T10:59:21;5.00;;;2.22;;
9465;SDS011;4771;48.726;9.006;2022-10-30T11:01:52;5.60;;;2.35;;
9465;SDS011;4771;48.726;9.006;2022-10-30T11:04:29;7.43;;;2.13;;
9465;SDS011;4771;48.726;9.006;2022-10-30T11:07:01;4.63;;;2.30;;
9465;SDS011;4771;48.726;9.006;2022-10-30T11:09:44;8.82;;;2.50;;
9465;SDS011;4771;48.726;9.006;2022-10-30T11:12:13;5.72;;;2.53;;
9465;SDS011;4771;48.726;9.006;2022-10-30T11:14:40;4.80;;;2.38;;
9465;SDS011;4771;48.726;9.006;2022-10-30T11:17:09;4.10;;;2.10;;
9465;SDS011;4771;48.726;9.006;2022-10-30T11:19:47;7.30;;;2.40;;
9465;SDS011;4771;48.726;9.006;2022-10-30T11:22:19;7.95;;;2.03;;
9465;SDS011;4771;48.726;9.006;2022-10-30T11:24:50;4.72;;;2.28;;
9465;SDS011;4771;48.726;9.006;2022-10-30T11:27:23;6.05;;;2.33;;
9465;SDS011;4771;48.726;9.006;2022-10-30T11:29:53;6.95;;;2.30;;
9465;SDS011;4771;48.726;9.006;2022-10-30T11:32:25;9.18;;;2.58;;
9465;SDS011;4771;48.726;9.006;2022-10-30T11:35:00;6.97;;;2.15;;
9465;SDS011;4771;48.726;9.006;2022-10-30T11:37:28;4.28;;;2.05;;
9465;SDS011;4771;48.726;9.006;2022-10-30T11:40:01;6.65;;;2.40;;
9465;SDS011;4771;48.726;9.006;2022-10-30T11:42:30;6.80;;;1.98;;
9465;SDS011;4771;48.726;9.006;2022-10-30T11:44:58;7.85;;;2.67;;
9465;SDS011;4771;48.726;9.006;2022-10-30T11:47:26;4.82;;;2.05;;
9465;SDS011;4771;48.726;9.006;2022-10-30T11:50:00;6.68;;;2.30;;
9465;SDS011;4771;48.726;9.006;2022-10-30T11:52:30;5.70;;;2.35;;
9465;SDS011;4771;48.726;9.006;2022-10-30T11:55:07;6.88;;;2.10;;
9465;SDS011;4771;48.726;9.006;2022-10-30T11:57:40;7.22;;;2.75;;
9465;SDS011;4771;48.726;9.006;2022-10-30T12:00:13;6.50;;;2.50;;
9465;SDS011;4771;48.726;9.006;2022-10-30T12:02:43;6.20;;;2.72;;
9465;SDS011;4771;48.726;9.006;2022-10-30T12:08:14;7.10;;;2.55;;
9465;SDS011;4771;48.726;9.006;2022-10-30T12:10:46;7.38;;;2.42;;
9465;SDS011;4771;48.726;9.006;2022-10-30T12:13:21;7.00;;;2.55;;
9465;SDS011;4771;48.726;9.006;2022-10-30T12:15:50;5.45;;;1.83;;
9465;SDS011;4771;48.726;9.006;2022-10-30T12:18:29;5.32;;;1.75;;
9465;SDS011;4771;48.726;9.006;2022-10-30T12:20:59;6.50;;;2.28;;
9465;SDS011;4771;48.726;9.006;2022-10-30T12:23:28;3.88;;;1.83;;
9465;SDS011;4771;48.726;9.006;2022-10-30T12:25:58;6.03;;;2.00;;
9465;SDS011;4771;48.726;9.006;2022-10-30T12:28:27;3.38;;;2.00;;
9465;SDS011;4771;48.726;9.006;2022-10-30T12:30:57;3.35;;;1.60;;
9465;SDS011;4771;48.726;9.006;2022-10-30T12:33:30;5.93;;;2.17;;
9465;SDS011;4771;48.726;9.006;2022-10-30T12:36:04;4.53;;;1.90;;
9465;SDS011;4771;48.726;9.006;2022-10-30T12:38:35;4.60;;;1.60;;
9465;SDS011;4771;48.726;9.006;2022-10-30T12:41:09;8.02;;;1.70;;
9465;SDS011;4771;48.726;9.006;2022-10-30T12:43:40;3.05;;;1.50;;
9465;SDS011;4771;48.726;9.006;2022-10-30T12:46:14;3.65;;;1.80;;
9465;SDS011;4771;48.726;9.006;2022-10-30T12:48:51;7.15;;;1.85;;
9465;SDS011;4771;48.726;9.006;2022-10-30T12:51:28;3.33;;;2.08;;
9465;SDS011;4771;48.726;9.006;2022-10-30T12:54:03;2.83;;;1.80;;
9465;SDS011;4771;48.726;9.006;2022-10-30T12:56:37;4.38;;;1.70;;
9465;SDS011;4771;48.726;9.006;2022-10-30T12:59:15;4.65;;;1.48;;
9465;SDS011;4771;48.726;9.006;2022-10-30T13:01:51;5.28;;;1.70;;
9465;SDS011;4771;48.726;9.006;2022-10-30T13:04:23;4.07;;;1.83;;
9465;SDS011;4771;48.726;9.006;2022-10-30T13:06:54;5.20;;;1.90;;
9465;SDS011;4771;48.726;9.006;2022-10-30T13:09:31;8.98;;;3.90;;
9465;SDS011;4771;48.726;9.006;2022-10-30T13:12:07;6.35;;;4.03;;
9465;SDS011;4771;48.726;9.006;2022-10-30T13:14:39;5.50;;;3.38;;
9465;SDS011;4771;48.726;9.006;2022-10-30T13:17:10;5.57;;;2.40;;
9465;SDS011;4771;48.726;9.006;2022-10-30T13:19:38;4.47;;;2.40;;
9465;SDS011;4771;48.726;9.006;2022-10-30T13:22:11;4.25;;;2.10;;
9465;SDS011;4771;48.726;9.006;2022-10-30T13:24:46;4.45;;;1.98;;
9465;SDS011;4771;48.726;9.006;2022-10-30T13:27:22;4.00;;;2.20;;
9465;SDS011;4771;48.726;9.006;2022-10-30T13:29:55;5.45;;;2.60;;
9465;SDS011;4771;48.726;9.006;2022-10-30T13:32:31;4.82;;;2.10;;
9465;SDS011;4771;48.726;9.006;2022-10-30T13:35:08;3.38;;;1.42;;
9465;SDS011;4771;48.726;9.006;2022-10-30T13:37:48;3.90;;;2.03;;
9465;SDS011;4771;48.726;9.006;2022-10-30T13:40:19;5.10;;;2.00;;
9465;SDS011;4771;48.726;9.006;2022-10-30T13:42:55;5.38;;;2.15;;
9465;SDS011;4771;48.726;9.006;2022-10-30T13:45:35;5.10;;;1.92;;
9465;SDS011;4771;48.726;9.006;2022-10-30T13:48:14;5.05;;;2.40;;
9465;SDS011;4771;48.726;9.006;2022-10-30T13:50:53;4.45;;;2.88;;
9465;SDS011;4771;48.726;9.006;2022-10-30T13:53:47;3.60;;;2.20;;
9465;SDS011;4771;48.726;9.006;2022-10-30T13:56:21;3.80;;;2.30;;
9465;SDS011;4771;48.726;9.006;2022-10-30T13:58:49;3.20;;;2.25;;
9465;SDS011;4771;48.726;9.006;2022-10-30T14:01:24;4.68;;;2.90;;
9465;SDS011;4771;48.726;9.006;2022-10-30T14:03:57;3.67;;;2.65;;
9465;SDS011;4771;48.726;9.006;2022-10-30T14:06:34;5.32;;;2.70;;
9465;SDS011;4771;48.726;9.006;2022-10-30T14:09:10;6.78;;;2.60;;
9465;SDS011;4771;48.726;9.006;2022-10-30T14:11:43;5.65;;;2.28;;
9465;SDS011;4771;48.726;9.006;2022-10-30T14:14:24;5.43;;;2.35;;
9465;SDS011;4771;48.726;9.006;2022-10-30T14:17:07;7.07;;;2.63;;
9465;SDS011;4771;48.726;9.006;2022-10-30T14:22:41;5.07;;;2.20;;
9465;SDS011;4771;48.726;9.006;2022-10-30T14:25:14;7.20;;;2.20;;
9465;SDS011;4771;48.726;9.006;2022-10-30T14:27:41;7.78;;;3.88;;
9465;SDS011;4771;48.726;9.006;2022-10-30T14:30:16;6.10;;;2.17;;
9465;SDS011;4771;48.726;9.006;2022-10-30T14:32:47;4.05;;;1.63;;
9465;SDS011;4771;48.726;9.006;2022-10-30T14:35:29;6.10;;;1.50;;
9465;SDS011;4771;48.726;9.006;2022-10-30T14:38:14;8.93;;;2.20;;
9465;SDS011;4771;48.726;9.006;2022-10-30T14:40:58;4.05;;;2.15;;
9465;SDS011;4771;48.726;9.006;2022-10-30T14:43:40;5.38;;;2.10;;
9465;SDS011;4771;48.726;9.006;2022-10-30T14:46:16;4.88;;;1.80;;
9465;SDS011;4771;48.726;9.006;2022-10-30T14:48:51;5.18;;;1.92;;
9465;SDS011;4771;48.726;9.006;2022-10-30T14:51:27;5.20;;;1.80;;
9465;SDS011;4771;48.726;9.006;2022-10-30T14:54:02;4.10;;;1.55;;
9465;SDS011;4771;48.726;9.006;2022-10-30T14:56:40;3.72;;;1.92;;
9465;SDS011;4771;48.726;9.006;2022-10-30T14:59:29;4.80;;;1.80;;
9465;SDS011;4771;48.726;9.006;2022-10-30T15:02:03;4.05;;;1.80;;
9465;SDS011;4771;48.726;9.006;2022-10-30T15:04:45;8.85;;;1.88;;
9465;SDS011;4771;48.726;9.006;2022-10-30T15:07:26;3.20;;;1.80;;
9465;SDS011;4771;48.726;9.006;2022-10-30T15:10:05;5.32;;;1.75;;
9465;SDS011;4771;48.726;9.006;2022-10-30T15:15:35;4.28;;;2.10;;
9465;SDS011;4771;48.726;9.006;2022-10-30T15:18:02;3.85;;;1.95;;
9465;SDS011;4771;48.726;9.006;2022-10-30T15:20:34;6.65;;;2.45;;
9465;SDS011;4771;48.726;9.006;2022-10-30T15:23:06;4.75;;;2.70;;
9465;SDS011;4771;48.726;9.006;2022-10-30T15:25:37;10.00;;;4.40;;
9465;SDS011;4771;48.726;9.006;2022-10-30T15:28:14;6.13;;;2.90;;
9465;SDS011;4771;48.726;9.006;2022-10-30T15:33:33;8.23;;;2.35;;
9465;SDS011;4771;48.726;9.006;2022-10-30T15:36:02;4.88;;;2.33;;
9465;SDS011;4771;48.726;9.006;2022-10-30T15:38:30;3.92;;;1.90;;
9465;SDS011;4771;48.726;9.006;2022-10-30T15:40:57;5.82;;;2.00;;
9465;SDS011;4771;48.726;9.006;2022-10-30T15:43:29;8.02;;;2.33;;